createdAt,value
2018-08-31T00:01:44.570Z,15.70
2018-08-31T00:04:35.624Z,15.70
2018-08-31T00:07:15.468Z,15.60
2018-08-31T00:09:57.256Z,15.60
2018-08-31T00:12:35.612Z,15.50
2018-08-31T00:15:03.988Z,15.40
2018-08-31T00:17:32.232Z,15.40
2018-08-31T00:20:00.392Z,15.40
2018-08-31T00:22:28.568Z,15.30
2018-08-31T00:26:12.119Z,15.30
2018-08-31T00:29:09.240Z,15.20
2018-08-31T00:33:54.620Z,15.20
2018-08-31T00:36:32.523Z,15.20
2018-08-31T00:39:23.256Z,15.10
2018-08-31T00:42:09.495Z,15.10
2018-08-31T00:45:43.302Z,15.10
2018-08-31T00:48:11.578Z,15.20
2018-08-31T00:50:39.722Z,15.10
2018-08-31T00:53:07.907Z,15.10
2018-08-31T00:55:36.069Z,15.00
2018-08-31T00:58:04.214Z,15.00
2018-08-31T01:00:32.387Z,14.90
2018-08-31T01:03:00.620Z,14.90
2018-08-31T01:05:28.796Z,14.80
2018-08-31T01:07:56.949Z,14.70
2018-08-31T01:10:25.491Z,14.60
2018-08-31T01:12:54.757Z,14.60
2018-08-31T01:15:22.895Z,14.60
2018-08-31T01:17:51.070Z,14.60
2018-08-31T01:20:19.241Z,14.50
2018-08-31T01:22:47.996Z,14.50
2018-08-31T01:25:16.160Z,14.40
2018-08-31T01:27:46.321Z,14.40
2018-08-31T01:30:14.538Z,14.40
2018-08-31T01:32:42.688Z,14.30
2018-08-31T01:35:10.812Z,14.30
2018-08-31T01:37:40.673Z,14.20
2018-08-31T01:40:09.130Z,14.20
2018-08-31T01:42:37.350Z,14.20
2018-08-31T01:45:05.726Z,14.20
2018-08-31T01:47:35.334Z,14.20
2018-08-31T01:50:03.464Z,14.20
2018-08-31T01:52:32.408Z,14.10
2018-08-31T01:55:00.577Z,14.10
2018-08-31T01:57:28.760Z,14.10
2018-08-31T01:59:58.209Z,14.00
2018-08-31T02:02:26.343Z,14.00
2018-08-31T02:04:54.835Z,14.00
2018-08-31T02:07:22.974Z,13.90
2018-08-31T02:09:51.109Z,13.90
2018-08-31T02:12:19.214Z,13.90
2018-08-31T02:14:47.404Z,13.90
2018-08-31T02:17:15.601Z,13.80
2018-08-31T02:19:44.906Z,13.70
2018-08-31T02:22:13.352Z,13.80
2018-08-31T02:24:41.540Z,13.70
2018-08-31T02:27:09.714Z,13.70
2018-08-31T02:29:37.928Z,13.70
2018-08-31T02:32:06.132Z,13.70
2018-08-31T02:34:34.348Z,13.60
2018-08-31T02:37:02.658Z,13.60
2018-08-31T02:39:30.870Z,13.60
2018-08-31T02:41:59.138Z,13.50
2018-08-31T02:44:28.240Z,13.50
2018-08-31T02:46:57.571Z,13.50
2018-08-31T02:49:27.545Z,13.50
2018-08-31T02:51:55.664Z,13.40
2018-08-31T02:54:23.807Z,13.50
2018-08-31T02:56:51.908Z,13.50
2018-08-31T02:59:20.223Z,13.40
2018-08-31T03:01:48.386Z,13.40
2018-08-31T03:04:16.760Z,13.40
2018-08-31T03:06:44.880Z,13.40
2018-08-31T03:09:13.047Z,13.40
2018-08-31T03:11:41.606Z,13.30
2018-08-31T03:14:09.762Z,13.30
2018-08-31T03:16:37.902Z,13.30
2018-08-31T03:19:06.244Z,13.30
2018-08-31T03:21:34.395Z,13.30
2018-08-31T03:24:03.613Z,13.30
2018-08-31T03:26:31.824Z,13.30
2018-08-31T03:29:00.167Z,13.30
2018-08-31T03:31:28.331Z,13.30
2018-08-31T03:33:56.588Z,13.20
2018-08-31T03:36:25.566Z,13.20
2018-08-31T03:38:53.721Z,13.10
2018-08-31T03:41:21.867Z,13.10
2018-08-31T03:43:50.247Z,13.00
2018-08-31T03:46:19.620Z,13.00
2018-08-31T03:48:47.940Z,13.00
2018-08-31T03:51:16.201Z,12.90
2018-08-31T03:53:44.336Z,12.90
2018-08-31T03:56:12.459Z,12.90
2018-08-31T03:58:40.629Z,13.00
2018-08-31T04:01:08.813Z,13.00
2018-08-31T04:03:38.145Z,13.00
2018-08-31T04:06:06.371Z,12.90
2018-08-31T04:08:35.470Z,12.90
2018-08-31T04:11:03.829Z,13.00
2018-08-31T04:13:32.052Z,13.00
2018-08-31T04:16:00.287Z,13.00
2018-08-31T04:18:28.436Z,12.90
2018-08-31T04:20:56.716Z,12.90
2018-08-31T04:23:25.030Z,12.90
2018-08-31T04:25:54.049Z,12.90
2018-08-31T04:28:22.219Z,12.90
2018-08-31T04:30:50.400Z,12.90
2018-08-31T04:33:18.560Z,12.90
2018-08-31T04:35:47.968Z,12.90
2018-08-31T04:38:16.094Z,12.90
2018-08-31T04:40:44.235Z,12.90
2018-08-31T04:43:12.376Z,13.00
2018-08-31T04:45:40.540Z,13.00
2018-08-31T04:48:08.676Z,13.00
2018-08-31T04:50:36.790Z,13.00
2018-08-31T04:53:05.413Z,13.00
2018-08-31T04:55:33.683Z,13.00
2018-08-31T04:58:01.830Z,13.00
2018-08-31T05:00:29.956Z,13.00
2018-08-31T05:02:58.089Z,13.10
2018-08-31T05:05:26.224Z,13.10
2018-08-31T05:07:55.426Z,13.10
2018-08-31T05:10:23.749Z,13.10
2018-08-31T05:12:51.962Z,13.20
2018-08-31T05:15:21.372Z,13.20
2018-08-31T05:17:49.586Z,13.30
2018-08-31T05:20:18.609Z,13.30
2018-08-31T05:22:47.483Z,13.40
2018-08-31T05:25:16.168Z,13.40
2018-08-31T05:27:44.325Z,13.50
2018-08-31T05:30:12.594Z,13.50
2018-08-31T05:32:42.491Z,13.60
2018-08-31T05:35:10.642Z,13.60
2018-08-31T05:37:38.787Z,13.70
2018-08-31T05:40:06.985Z,13.80
2018-08-31T05:42:35.138Z,13.90
2018-08-31T05:45:03.395Z,14.00
2018-08-31T05:47:31.594Z,14.10
2018-08-31T05:49:59.750Z,14.20
2018-08-31T05:52:27.927Z,14.30
2018-08-31T05:54:56.058Z,14.30
2018-08-31T05:57:24.322Z,14.30
2018-08-31T05:59:52.461Z,14.40
2018-08-31T06:02:20.788Z,14.50
2018-08-31T06:04:49.048Z,14.60
2018-08-31T06:07:17.234Z,14.60
2018-08-31T06:09:45.540Z,14.60
2018-08-31T06:12:14.999Z,14.70
2018-08-31T06:14:43.379Z,14.80
2018-08-31T06:17:11.602Z,14.70
2018-08-31T06:19:39.837Z,14.70
2018-08-31T06:22:08.926Z,14.70
2018-08-31T06:24:37.073Z,14.90
2018-08-31T06:27:05.308Z,15.00
2018-08-31T06:29:33.422Z,15.10
2018-08-31T06:32:01.564Z,15.10
2018-08-31T06:34:29.753Z,15.10
2018-08-31T06:36:57.962Z,15.10
2018-08-31T06:39:26.215Z,15.00
2018-08-31T06:41:54.649Z,15.00
2018-08-31T06:44:22.824Z,15.00
2018-08-31T06:46:51.147Z,15.00
2018-08-31T06:49:20.528Z,15.20
2018-08-31T06:51:48.653Z,15.30
2018-08-31T06:54:16.809Z,15.40
2018-08-31T06:56:45.000Z,15.60
2018-08-31T06:59:15.543Z,15.80
2018-08-31T07:01:43.631Z,15.90
2018-08-31T07:04:11.757Z,15.90
2018-08-31T07:06:39.955Z,15.90
2018-08-31T07:09:09.610Z,15.90
2018-08-31T07:11:37.755Z,15.90
2018-08-31T07:14:06.425Z,15.90
2018-08-31T07:16:34.829Z,15.90
2018-08-31T07:19:03.494Z,16.00
2018-08-31T07:21:31.868Z,16.10
2018-08-31T07:24:00.019Z,16.20
2018-08-31T07:26:28.368Z,16.30
2018-08-31T07:28:56.546Z,16.30
2018-08-31T07:31:24.714Z,16.40
2018-08-31T07:33:52.899Z,16.50
2018-08-31T07:36:21.920Z,16.50
2018-08-31T07:38:50.129Z,16.50
2018-08-31T07:41:18.828Z,16.40
2018-08-31T07:43:46.946Z,16.30
2018-08-31T07:46:15.071Z,16.20
2018-08-31T07:48:43.187Z,16.10
2018-08-31T07:51:11.491Z,16.00
2018-08-31T07:53:41.593Z,16.00
2018-08-31T07:56:09.759Z,15.90
2018-08-31T07:58:37.933Z,15.90
2018-08-31T08:01:06.428Z,15.80
2018-08-31T08:03:34.563Z,15.80
2018-08-31T08:06:02.842Z,15.90
2018-08-31T08:08:37.538Z,16.00
2018-08-31T08:11:05.710Z,16.10
2018-08-31T08:13:33.854Z,16.10
2018-08-31T08:16:06.603Z,16.10
2018-08-31T08:18:35.016Z,16.10
2018-08-31T08:21:04.458Z,16.10
2018-08-31T08:23:32.591Z,16.20
2018-08-31T08:26:00.813Z,16.30
2018-08-31T08:28:29.063Z,16.40
2018-08-31T08:30:57.150Z,16.60
2018-08-31T08:33:25.892Z,16.60
2018-08-31T08:35:54.034Z,16.80
2018-08-31T08:38:22.185Z,17.00
2018-08-31T08:40:50.325Z,17.20
2018-08-31T08:43:18.472Z,17.30
2018-08-31T08:45:46.846Z,17.30
2018-08-31T08:48:15.181Z,17.30
2018-08-31T08:50:43.246Z,17.30
2018-08-31T08:53:11.367Z,17.50
2018-08-31T08:55:39.460Z,17.60
2018-08-31T08:58:07.754Z,17.70
2018-08-31T09:00:40.482Z,17.80
2018-08-31T09:03:08.657Z,17.80
2018-08-31T09:05:37.708Z,17.90
2018-08-31T09:08:06.110Z,18.10
2018-08-31T09:10:34.342Z,18.20
2018-08-31T09:13:04.200Z,18.40
2018-08-31T09:15:32.543Z,18.50
2018-08-31T09:18:00.761Z,18.60
2018-08-31T09:20:29.001Z,18.70
2018-08-31T09:22:57.137Z,18.90
2018-08-31T09:25:26.789Z,19.10
2018-08-31T09:27:56.715Z,19.20
2018-08-31T09:30:30.486Z,19.30
2018-08-31T09:33:00.708Z,19.50
2018-08-31T09:35:28.986Z,19.80
2018-08-31T09:37:57.134Z,20.10
2018-08-31T09:40:25.618Z,20.20
2018-08-31T09:42:53.751Z,20.10
2018-08-31T09:45:21.938Z,20.00
2018-08-31T09:47:50.185Z,20.00
2018-08-31T09:50:18.476Z,20.00
2018-08-31T09:52:46.664Z,20.10
2018-08-31T09:55:14.827Z,20.20
2018-08-31T09:57:43.209Z,20.40
2018-08-31T10:00:12.208Z,20.40
2018-08-31T10:02:44.667Z,20.50
2018-08-31T10:05:12.825Z,20.60
2018-08-31T10:07:41.029Z,20.50
2018-08-31T10:10:09.216Z,20.40
2018-08-31T10:12:37.937Z,20.30
2018-08-31T10:15:07.523Z,20.30
2018-08-31T10:17:35.764Z,20.20
2018-08-31T10:20:04.105Z,20.30
2018-08-31T10:22:32.245Z,20.30
2018-08-31T10:25:00.399Z,20.30
2018-08-31T10:27:28.523Z,20.50
2018-08-31T10:29:56.719Z,20.70
2018-08-31T10:32:24.805Z,20.80
2018-08-31T10:34:52.933Z,20.80
2018-08-31T10:37:21.345Z,21.00
2018-08-31T10:39:49.668Z,21.10
2018-08-31T10:42:18.494Z,21.10
2018-08-31T10:44:46.651Z,21.20
2018-08-31T10:47:14.827Z,21.30
2018-08-31T10:49:44.363Z,21.30
2018-08-31T10:52:12.891Z,21.40
2018-08-31T10:54:41.544Z,21.40
2018-08-31T10:57:09.835Z,21.40
2018-08-31T10:59:38.007Z,21.50
2018-08-31T11:02:06.325Z,21.60
2018-08-31T11:04:34.621Z,21.70
2018-08-31T11:07:02.921Z,21.90
2018-08-31T11:09:31.109Z,22.10
2018-08-31T11:11:59.300Z,22.20
2018-08-31T11:14:27.487Z,22.10
2018-08-31T11:16:55.807Z,21.90
2018-08-31T11:19:23.931Z,21.90
2018-08-31T11:21:52.136Z,22.00
2018-08-31T11:24:20.320Z,22.20
2018-08-31T11:26:48.459Z,22.10
2018-08-31T11:29:16.622Z,21.80
2018-08-31T11:31:44.764Z,21.50
2018-08-31T11:34:12.914Z,21.20
2018-08-31T11:36:41.100Z,20.90
2018-08-31T11:39:10.431Z,20.90
2018-08-31T11:41:38.909Z,21.20
2018-08-31T11:44:07.036Z,21.30
2018-08-31T11:46:37.791Z,21.40
2018-08-31T11:49:06.005Z,21.50
2018-08-31T11:51:34.327Z,21.70
2018-08-31T11:54:02.517Z,21.90
2018-08-31T11:56:30.670Z,21.80
2018-08-31T11:58:59.630Z,21.80
2018-08-31T12:01:27.986Z,21.60
2018-08-31T12:03:56.160Z,21.20
2018-08-31T12:06:24.315Z,21.10
2018-08-31T12:08:52.511Z,21.00
2018-08-31T12:11:20.632Z,21.10
2018-08-31T12:13:50.105Z,21.20
2018-08-31T12:16:18.374Z,21.30
2018-08-31T12:18:47.271Z,21.30
2018-08-31T12:21:15.438Z,21.20
2018-08-31T12:23:43.781Z,21.20
2018-08-31T12:26:11.961Z,21.10
2018-08-31T12:28:40.227Z,21.00
2018-08-31T12:31:08.608Z,21.00
2018-08-31T12:33:36.725Z,20.90
2018-08-31T12:36:05.116Z,20.90
2018-08-31T12:38:33.291Z,20.90
2018-08-31T12:41:02.604Z,20.90
2018-08-31T12:43:30.713Z,21.00
2018-08-31T12:45:58.852Z,21.10
2018-08-31T12:48:27.058Z,21.30
2018-08-31T12:50:55.205Z,21.50
2018-08-31T12:53:23.373Z,21.40
2018-08-31T12:55:51.501Z,21.20
2018-08-31T12:58:21.571Z,20.90
2018-08-31T13:00:49.763Z,20.70
2018-08-31T13:03:17.915Z,20.60
2018-08-31T13:05:46.089Z,20.70
2018-08-31T13:08:14.467Z,20.80
2018-08-31T13:10:42.633Z,20.90
2018-08-31T13:13:10.771Z,21.00
2018-08-31T13:15:38.936Z,21.20
2018-08-31T13:18:07.106Z,21.20
2018-08-31T13:20:35.238Z,21.20
2018-08-31T13:23:03.425Z,21.10
2018-08-31T13:25:31.597Z,20.90
2018-08-31T13:27:59.773Z,20.70
2018-08-31T13:30:27.897Z,20.60
2018-08-31T13:32:56.118Z,20.50
2018-08-31T13:35:24.363Z,20.40
2018-08-31T13:37:52.754Z,20.40
2018-08-31T13:40:21.911Z,20.60
2018-08-31T13:42:51.005Z,20.60
2018-08-31T13:45:21.257Z,20.60
2018-08-31T13:47:49.401Z,20.70
2018-08-31T13:50:17.538Z,20.70
2018-08-31T13:52:45.704Z,20.90
2018-08-31T13:55:13.848Z,20.90
2018-08-31T13:57:42.027Z,20.90
2018-08-31T14:00:10.196Z,20.90
2018-08-31T14:02:38.378Z,20.90
2018-08-31T14:05:06.667Z,20.80
2018-08-31T14:07:36.300Z,20.60
2018-08-31T14:10:04.996Z,20.60
2018-08-31T14:12:33.309Z,20.50
2018-08-31T14:15:01.463Z,20.50
2018-08-31T14:17:29.595Z,20.60
2018-08-31T14:19:58.092Z,20.60
2018-08-31T14:22:26.944Z,20.60
2018-08-31T14:24:55.088Z,20.60
2018-08-31T14:27:23.561Z,20.60
2018-08-31T14:29:51.964Z,20.60
2018-08-31T14:32:19.939Z,20.60
2018-08-31T14:34:48.295Z,20.60
2018-08-31T14:37:16.423Z,20.60
2018-08-31T14:39:44.747Z,20.60
2018-08-31T14:42:12.941Z,20.60
2018-08-31T14:44:41.170Z,20.60
2018-08-31T14:47:09.399Z,20.60
2018-08-31T14:49:37.840Z,20.60
2018-08-31T14:52:06.328Z,20.60
2018-08-31T14:54:34.629Z,20.70
2018-08-31T14:57:02.810Z,20.70
2018-08-31T14:59:31.012Z,20.70
2018-08-31T15:01:59.205Z,20.70
2018-08-31T15:04:27.457Z,20.60
2018-08-31T15:06:55.637Z,20.70
2018-08-31T15:09:23.918Z,20.70
2018-08-31T15:11:52.097Z,20.90
2018-08-31T15:14:20.415Z,20.90
2018-08-31T15:16:48.554Z,21.00
2018-08-31T15:19:16.625Z,21.00
2018-08-31T15:21:44.931Z,21.00
2018-08-31T15:24:13.194Z,20.90
2018-08-31T15:26:41.479Z,20.80
2018-08-31T15:29:09.673Z,20.70
2018-08-31T15:31:37.895Z,20.60
2018-08-31T15:34:06.109Z,20.60
2018-08-31T15:36:34.283Z,20.50
2018-08-31T15:39:02.559Z,20.40
2018-08-31T15:41:30.858Z,20.40
2018-08-31T15:43:59.063Z,20.30
2018-08-31T15:46:27.411Z,20.30
2018-08-31T15:48:55.588Z,20.20
2018-08-31T15:51:23.748Z,20.20
2018-08-31T15:53:51.904Z,20.20
2018-08-31T15:56:20.077Z,20.20
2018-08-31T15:58:48.301Z,20.20
2018-08-31T16:01:16.545Z,20.30
2018-08-31T16:03:44.893Z,20.30
2018-08-31T16:06:13.113Z,20.40
2018-08-31T16:08:41.321Z,20.40
2018-08-31T16:11:09.557Z,20.50
2018-08-31T16:13:37.771Z,20.50
2018-08-31T16:16:05.989Z,20.60
2018-08-31T16:18:34.120Z,20.70
2018-08-31T16:21:02.401Z,20.80
2018-08-31T16:23:30.542Z,20.90
2018-08-31T16:25:58.670Z,20.90
2018-08-31T16:28:27.002Z,20.80
2018-08-31T16:30:55.215Z,20.70
2018-08-31T16:33:23.457Z,20.70
2018-08-31T16:35:51.672Z,20.50
2018-08-31T16:38:19.901Z,20.50
2018-08-31T16:40:48.111Z,20.40
2018-08-31T16:43:16.332Z,20.40
2018-08-31T16:45:44.576Z,20.40
2018-08-31T16:48:12.832Z,20.40
2018-08-31T16:50:41.179Z,20.40
2018-08-31T16:53:09.527Z,20.40
2018-08-31T16:55:37.661Z,20.30
2018-08-31T16:58:06.356Z,20.30
2018-08-31T17:00:34.775Z,20.40
2018-08-31T17:03:02.982Z,20.30
2018-08-31T17:05:31.169Z,20.30
2018-08-31T17:07:59.391Z,20.30
2018-08-31T17:10:27.561Z,20.20
2018-08-31T17:12:55.748Z,20.20
2018-08-31T17:15:24.104Z,20.10
2018-08-31T17:17:52.288Z,20.10
2018-08-31T17:20:20.419Z,19.90
2018-08-31T17:22:48.880Z,19.90
2018-08-31T17:25:17.031Z,19.80
2018-08-31T17:27:50.563Z,19.70
2018-08-31T17:30:20.817Z,19.60
2018-08-31T17:32:54.773Z,19.50
2018-08-31T17:35:28.489Z,19.50
2018-08-31T17:37:59.013Z,19.40
2018-08-31T17:40:27.409Z,19.30
2018-08-31T17:42:55.547Z,19.20
2018-08-31T17:45:23.717Z,19.10
2018-08-31T17:47:52.265Z,19.10
2018-08-31T17:50:20.503Z,19.00
2018-08-31T17:52:48.770Z,19.00
2018-08-31T17:55:16.909Z,18.90
2018-08-31T17:57:45.085Z,18.80
2018-08-31T18:00:13.255Z,18.80
2018-08-31T18:02:41.842Z,18.70
2018-08-31T18:05:10.066Z,18.70
2018-08-31T18:07:38.176Z,18.60
2018-08-31T18:10:07.124Z,18.60
2018-08-31T18:12:35.471Z,18.50
2018-08-31T18:15:03.850Z,18.50
2018-08-31T18:17:32.186Z,18.40
2018-08-31T18:20:00.441Z,18.40
2018-08-31T18:22:28.704Z,18.40
2018-08-31T18:24:56.938Z,18.40
2018-08-31T18:27:25.178Z,18.30
2018-08-31T18:29:53.527Z,18.30
2018-08-31T18:32:21.666Z,18.30
2018-08-31T18:34:49.955Z,18.30
2018-08-31T18:37:18.186Z,18.30
2018-08-31T18:39:46.362Z,18.20
2018-08-31T18:42:14.695Z,18.20
2018-08-31T18:44:42.933Z,18.20
2018-08-31T18:47:11.233Z,18.20
2018-08-31T18:49:39.383Z,18.20
2018-08-31T18:52:08.527Z,18.20
2018-08-31T18:54:36.673Z,18.20
2018-08-31T18:57:04.909Z,18.20
2018-08-31T18:59:33.403Z,18.10
2018-08-31T19:02:01.680Z,18.10
2018-08-31T19:04:30.807Z,18.10
2018-08-31T19:06:59.003Z,18.00
2018-08-31T19:09:27.171Z,18.00
2018-08-31T19:11:55.353Z,18.00
2018-08-31T19:14:23.535Z,18.00
2018-08-31T19:16:52.629Z,17.90
2018-08-31T19:19:21.257Z,17.90
2018-08-31T19:21:49.489Z,17.80
2018-08-31T19:24:17.708Z,17.70
2018-08-31T19:26:46.144Z,17.70
2018-08-31T19:29:14.323Z,17.70
2018-08-31T19:31:43.108Z,17.60
2018-08-31T19:34:11.519Z,17.60
2018-08-31T19:36:39.807Z,17.60
2018-08-31T19:39:09.130Z,17.50
2018-08-31T19:41:37.375Z,17.50
2018-08-31T19:44:05.676Z,17.50
2018-08-31T19:46:33.939Z,17.40
2018-08-31T19:49:02.376Z,17.40
2018-08-31T19:51:31.495Z,17.40
2018-08-31T19:53:59.880Z,17.40
2018-08-31T19:56:28.729Z,17.30
2018-08-31T19:58:58.773Z,17.30
2018-08-31T20:01:26.949Z,17.30
2018-08-31T20:03:55.163Z,17.30
2018-08-31T20:06:23.474Z,17.20
2018-08-31T20:08:51.682Z,17.20
2018-08-31T20:11:19.911Z,17.20
2018-08-31T20:13:48.831Z,17.20
2018-08-31T20:16:17.111Z,17.10
2018-08-31T20:18:46.505Z,17.10
2018-08-31T20:21:15.661Z,17.10
2018-08-31T20:23:43.912Z,17.00
2018-08-31T20:26:12.334Z,16.90
2018-08-31T20:28:40.670Z,16.90
2018-08-31T20:31:08.881Z,16.90
2018-08-31T20:33:37.171Z,16.80
2018-08-31T20:36:05.579Z,16.80
2018-08-31T20:38:33.753Z,16.70
2018-08-31T20:41:01.901Z,16.70
2018-08-31T20:43:30.816Z,16.60
2018-08-31T20:46:00.743Z,16.60
2018-08-31T20:48:28.957Z,16.50
2018-08-31T20:50:57.140Z,16.40
2018-08-31T20:53:26.607Z,16.40
2018-08-31T20:55:55.135Z,16.40
2018-08-31T20:58:23.441Z,16.30
2018-08-31T21:00:52.025Z,16.30
2018-08-31T21:03:20.257Z,16.30
2018-08-31T21:05:48.384Z,16.20
2018-08-31T21:08:16.546Z,16.20
2018-08-31T21:10:44.727Z,16.20
2018-08-31T21:13:12.948Z,16.20
2018-08-31T21:15:41.084Z,16.10
2018-08-31T21:18:09.309Z,16.10
2018-08-31T21:20:37.495Z,16.10
2018-08-31T21:23:05.701Z,16.00
2018-08-31T21:25:34.001Z,16.00
2018-08-31T21:28:02.240Z,15.90
2018-08-31T21:30:30.520Z,15.90
2018-08-31T21:32:58.774Z,15.80
2018-08-31T21:35:26.992Z,15.80
2018-08-31T21:37:55.209Z,15.70
2018-08-31T21:40:23.429Z,15.70
2018-08-31T21:42:52.099Z,15.60
2018-08-31T21:45:20.520Z,15.60
2018-08-31T21:47:48.736Z,15.60
2018-08-31T21:50:17.131Z,15.60
2018-08-31T21:52:45.418Z,15.60
2018-08-31T21:55:13.585Z,15.60
2018-08-31T21:57:41.753Z,15.60
2018-08-31T22:00:13.638Z,15.60
2018-08-31T22:02:41.769Z,15.60
2018-08-31T22:05:10.037Z,15.60
2018-08-31T22:07:38.338Z,15.70
2018-08-31T22:10:06.838Z,15.70
2018-08-31T22:12:35.102Z,15.70
2018-08-31T22:15:03.255Z,15.80
2018-08-31T22:17:31.612Z,15.80
2018-08-31T22:19:59.766Z,15.80
2018-08-31T22:22:27.910Z,15.80
2018-08-31T22:24:56.036Z,15.90
2018-08-31T22:27:24.181Z,15.90
2018-08-31T22:29:52.478Z,15.90
2018-08-31T22:32:20.715Z,15.90
2018-08-31T22:34:48.972Z,16.00
2018-08-31T22:37:17.162Z,16.00
2018-08-31T22:39:45.552Z,16.00
2018-08-31T22:42:13.684Z,16.00
2018-08-31T22:44:41.959Z,16.00
2018-08-31T22:47:10.171Z,16.00
2018-08-31T22:49:38.306Z,16.00
2018-08-31T22:52:06.453Z,15.90
2018-08-31T22:54:34.640Z,15.90
2018-08-31T22:57:02.844Z,15.90
2018-08-31T22:59:31.168Z,15.80
2018-08-31T23:01:59.464Z,15.80
2018-08-31T23:04:27.664Z,15.70
2018-08-31T23:06:56.058Z,15.60
2018-08-31T23:09:24.234Z,15.50
2018-08-31T23:11:53.491Z,15.50
2018-08-31T23:14:21.958Z,15.40
2018-08-31T23:16:50.126Z,15.40
2018-08-31T23:19:18.526Z,15.40
2018-08-31T23:21:46.692Z,15.40
2018-08-31T23:24:14.864Z,15.30
2018-08-31T23:26:43.203Z,15.30
2018-08-31T23:29:11.349Z,15.30
2018-08-31T23:31:39.495Z,15.20
2018-08-31T23:34:07.641Z,15.20
2018-08-31T23:36:36.385Z,15.20
2018-08-31T23:39:06.634Z,15.30
2018-08-31T23:41:34.860Z,15.30
2018-08-31T23:44:03.076Z,15.30
2018-08-31T23:46:31.789Z,15.30
2018-08-31T23:48:59.882Z,15.30
2018-08-31T23:51:27.988Z,15.40
2018-08-31T23:53:56.120Z,15.40
2018-08-31T23:56:24.456Z,15.40
2018-08-31T23:58:52.622Z,15.50
